createdAt,value
2022-12-18T00:01:17.574Z,45.53
2022-12-18T00:03:44.995Z,45.17
2022-12-18T00:06:12.993Z,38.63
2022-12-18T00:08:39.553Z,32.97
2022-12-18T00:11:07.751Z,44.35
2022-12-18T00:13:35.108Z,37.50
2022-12-18T00:16:06.659Z,44.33
2022-12-18T00:18:33.747Z,37.53
2022-12-18T00:21:02.957Z,35.70
2022-12-18T00:23:30.833Z,37.42
2022-12-18T00:26:02.031Z,48.45
2022-12-18T00:28:31.328Z,45.05
2022-12-18T00:31:06.634Z,40.42
2022-12-18T00:33:33.849Z,38.55
2022-12-18T00:36:07.695Z,39.85
2022-12-18T00:38:35.017Z,41.88
2022-12-18T00:41:01.576Z,49.35
2022-12-18T00:43:28.483Z,49.55
2022-12-18T00:45:55.357Z,47.08
2022-12-18T00:48:22.232Z,41.72
2022-12-18T00:50:50.247Z,49.28
2022-12-18T00:53:16.832Z,41.88
2022-12-18T00:55:44.021Z,43.15
2022-12-18T00:58:12.135Z,44.85
2022-12-18T01:00:39.030Z,41.50
2022-12-18T01:03:06.269Z,39.85
2022-12-18T01:05:33.331Z,35.00
2022-12-18T01:08:00.541Z,42.67
2022-12-18T01:10:27.038Z,40.10
2022-12-18T01:12:57.450Z,40.83
2022-12-18T01:15:23.936Z,38.67
2022-12-18T01:17:53.198Z,34.58
2022-12-18T01:20:20.055Z,41.90
2022-12-18T01:22:46.542Z,53.97
2022-12-18T01:25:13.359Z,32.72
2022-12-18T01:27:39.929Z,50.85
2022-12-18T01:30:07.095Z,44.05
2022-12-18T01:32:33.943Z,40.60
2022-12-18T01:35:02.286Z,46.45
2022-12-18T01:37:28.704Z,35.83
2022-12-18T01:39:58.106Z,40.67
2022-12-18T01:42:26.448Z,41.35
2022-12-18T01:45:01.941Z,40.58
2022-12-18T01:47:37.662Z,44.00
2022-12-18T01:50:18.330Z,43.15
2022-12-18T01:52:49.785Z,40.88
2022-12-18T01:55:19.945Z,39.85
2022-12-18T01:57:48.491Z,37.85
2022-12-18T02:00:19.151Z,40.00
2022-12-18T02:02:47.437Z,43.80
2022-12-18T02:05:18.834Z,44.33
2022-12-18T02:08:04.644Z,43.47
2022-12-18T02:10:57.259Z,37.97
2022-12-18T02:13:44.742Z,39.70
2022-12-18T02:16:38.922Z,31.92
2022-12-18T02:19:24.255Z,41.78
2022-12-18T02:22:04.809Z,39.38
2022-12-18T02:24:46.443Z,33.35
2022-12-18T02:27:14.183Z,40.22
2022-12-18T02:29:50.571Z,38.65
2022-12-18T02:32:26.875Z,38.20
2022-12-18T02:34:57.635Z,39.00
2022-12-18T02:37:28.776Z,39.90
2022-12-18T02:42:25.414Z,31.35
2022-12-18T02:44:52.986Z,30.20
2022-12-18T02:47:29.386Z,30.35
2022-12-18T02:50:04.502Z,38.53
2022-12-18T02:52:55.627Z,38.70
2022-12-18T02:55:52.731Z,28.67
2022-12-18T02:58:31.298Z,34.53
2022-12-18T03:01:18.615Z,33.60
2022-12-18T03:03:52.728Z,29.13
2022-12-18T03:06:27.807Z,32.22
2022-12-18T03:09:03.367Z,41.97
2022-12-18T03:11:53.858Z,31.27
2022-12-18T03:14:23.954Z,30.05
2022-12-18T03:16:55.701Z,34.00
2022-12-18T03:19:25.390Z,30.67
2022-12-18T03:21:56.868Z,31.02
2022-12-18T03:24:29.612Z,33.33
2022-12-18T03:27:03.755Z,32.63
2022-12-18T03:29:39.254Z,39.67
2022-12-18T03:32:11.936Z,31.35
2022-12-18T03:34:43.198Z,30.55
2022-12-18T03:37:13.275Z,35.13
2022-12-18T03:39:41.166Z,28.15
2022-12-18T03:42:32.281Z,27.38
2022-12-18T03:45:14.934Z,34.00
2022-12-18T03:47:46.364Z,28.33
2022-12-18T03:50:56.987Z,31.77
2022-12-18T03:53:32.795Z,26.60
2022-12-18T03:56:02.643Z,19.77
2022-12-18T03:58:37.630Z,25.50
2022-12-18T04:01:25.080Z,28.08
2022-12-18T04:03:53.718Z,22.38
2022-12-18T04:06:22.162Z,23.60
2022-12-18T04:08:49.185Z,32.35
2022-12-18T04:11:20.529Z,26.65
2022-12-18T04:13:48.452Z,24.10
2022-12-18T04:16:20.365Z,32.60
2022-12-18T04:18:50.440Z,28.77
2022-12-18T04:21:20.372Z,28.40
2022-12-18T04:23:48.532Z,30.67
2022-12-18T04:26:15.164Z,25.98
2022-12-18T04:29:10.175Z,26.20
2022-12-18T04:31:37.855Z,21.40
2022-12-18T04:34:05.658Z,22.00
2022-12-18T04:36:38.605Z,22.75
2022-12-18T04:39:05.188Z,32.70
2022-12-18T04:41:32.186Z,24.73
2022-12-18T04:43:58.673Z,23.17
2022-12-18T04:46:25.652Z,24.50
2022-12-18T04:48:52.134Z,25.95
2022-12-18T04:51:23.296Z,21.55
2022-12-18T04:53:53.050Z,23.98
2022-12-18T04:56:19.894Z,24.10
2022-12-18T04:58:46.381Z,24.52
2022-12-18T05:01:14.654Z,24.23
2022-12-18T05:03:41.898Z,25.15
2022-12-18T05:06:08.795Z,23.10
2022-12-18T05:08:36.069Z,20.88
2022-12-18T05:11:05.441Z,22.40
2022-12-18T05:13:35.088Z,18.80
2022-12-18T05:16:02.005Z,19.90
2022-12-18T05:18:28.782Z,21.88
2022-12-18T05:20:55.804Z,21.85
2022-12-18T05:23:24.498Z,19.20
2022-12-18T05:25:57.926Z,16.83
2022-12-18T05:28:26.562Z,16.42
2022-12-18T05:30:54.965Z,19.58
2022-12-18T05:33:23.202Z,16.70
2022-12-18T05:35:56.319Z,20.58
2022-12-18T05:38:25.150Z,14.90
2022-12-18T05:40:52.755Z,18.50
2022-12-18T05:43:21.855Z,18.58
2022-12-18T05:45:49.465Z,18.27
2022-12-18T05:48:17.559Z,19.25
2022-12-18T05:50:46.502Z,17.15
2022-12-18T05:53:15.255Z,18.88
2022-12-18T05:55:43.382Z,13.68
2022-12-18T05:58:11.311Z,14.27
2022-12-18T06:00:40.876Z,16.02
2022-12-18T06:03:10.881Z,14.65
2022-12-18T06:05:39.229Z,17.17
2022-12-18T06:08:06.161Z,16.73
2022-12-18T06:10:32.569Z,18.55
2022-12-18T06:13:00.005Z,16.00
2022-12-18T06:15:26.646Z,12.10
2022-12-18T06:17:53.279Z,14.80
2022-12-18T06:20:19.915Z,16.40
2022-12-18T06:22:46.463Z,16.52
2022-12-18T06:25:12.995Z,19.73
2022-12-18T06:27:39.928Z,15.40
2022-12-18T06:30:07.615Z,16.88
2022-12-18T06:32:34.246Z,23.25
2022-12-18T06:35:00.692Z,16.80
2022-12-18T06:37:27.226Z,18.45
2022-12-18T06:39:57.541Z,14.65
2022-12-18T06:42:25.163Z,19.38
2022-12-18T06:44:51.666Z,21.88
2022-12-18T06:47:19.357Z,16.25
2022-12-18T06:49:45.858Z,18.90
2022-12-18T06:52:12.261Z,17.67
2022-12-18T06:54:38.889Z,15.90
2022-12-18T06:57:05.348Z,15.70
2022-12-18T06:59:31.769Z,14.40
2022-12-18T07:01:58.337Z,13.48
2022-12-18T07:04:30.795Z,17.05
2022-12-18T07:06:58.482Z,15.07
2022-12-18T07:09:25.512Z,15.77
2022-12-18T07:11:52.775Z,17.92
2022-12-18T07:14:19.738Z,21.02
2022-12-18T07:16:46.257Z,26.02
2022-12-18T07:19:12.748Z,15.60
2022-12-18T07:21:39.687Z,17.95
2022-12-18T07:24:06.793Z,14.93
2022-12-18T07:26:33.228Z,16.83
2022-12-18T07:28:59.754Z,16.55
2022-12-18T07:31:26.895Z,15.70
2022-12-18T07:33:53.925Z,16.55
2022-12-18T07:36:23.782Z,14.75
2022-12-18T07:38:52.533Z,18.30
2022-12-18T07:41:19.762Z,15.88
2022-12-18T07:43:46.638Z,17.60
2022-12-18T07:46:15.256Z,21.67
2022-12-18T07:48:43.446Z,16.90
2022-12-18T07:51:13.606Z,21.17
2022-12-18T07:53:41.215Z,16.23
2022-12-18T07:56:30.366Z,13.73
2022-12-18T07:58:58.597Z,19.02
2022-12-18T08:01:25.699Z,15.85
2022-12-18T08:03:52.741Z,14.48
2022-12-18T08:06:24.350Z,14.85
2022-12-18T08:08:54.855Z,14.38
2022-12-18T08:11:21.702Z,17.80
2022-12-18T08:13:48.297Z,17.38
2022-12-18T08:16:15.694Z,14.70
2022-12-18T08:18:42.186Z,15.85
2022-12-18T08:21:10.020Z,15.50
2022-12-18T08:23:42.123Z,18.83
2022-12-18T08:26:10.063Z,13.40
2022-12-18T08:28:36.790Z,17.42
2022-12-18T08:31:03.644Z,17.58
2022-12-18T08:33:30.461Z,30.88
2022-12-18T08:35:56.978Z,26.30
2022-12-18T08:38:24.187Z,21.55
2022-12-18T08:40:50.724Z,17.63
2022-12-18T08:43:35.775Z,25.80
2022-12-18T08:46:02.386Z,31.27
2022-12-18T08:48:28.909Z,21.48
2022-12-18T08:50:59.943Z,22.02
2022-12-18T08:53:30.334Z,23.55
2022-12-18T08:56:00.681Z,23.38
2022-12-18T08:58:27.116Z,15.60
2022-12-18T09:00:53.626Z,16.67
2022-12-18T09:03:20.773Z,18.50
2022-12-18T09:05:47.819Z,18.77
2022-12-18T09:08:14.306Z,19.50
2022-12-18T09:10:45.930Z,17.52
2022-12-18T09:13:13.116Z,15.48
2022-12-18T09:15:43.687Z,24.40
2022-12-18T09:18:10.542Z,24.98
2022-12-18T09:20:38.004Z,25.42
2022-12-18T09:23:05.515Z,20.90
2022-12-18T09:25:36.789Z,20.30
2022-12-18T09:28:05.744Z,16.38
2022-12-18T09:30:34.417Z,16.50
2022-12-18T09:33:01.708Z,18.65
2022-12-18T09:35:28.872Z,18.13
2022-12-18T09:37:55.432Z,27.60
2022-12-18T09:40:26.139Z,27.30
2022-12-18T09:42:58.517Z,14.80
2022-12-18T09:45:25.427Z,27.08
2022-12-18T09:47:55.345Z,26.75
2022-12-18T09:50:21.854Z,19.15
2022-12-18T09:52:54.216Z,26.15
2022-12-18T09:55:35.095Z,23.90
2022-12-18T09:58:22.270Z,19.65
2022-12-18T10:00:48.761Z,26.48
2022-12-18T10:03:16.734Z,25.83
2022-12-18T10:06:08.427Z,27.65
2022-12-18T10:09:02.573Z,30.63
2022-12-18T10:11:50.161Z,24.42
2022-12-18T10:14:43.373Z,25.13
2022-12-18T10:17:32.527Z,18.55
2022-12-18T10:20:28.563Z,25.50
2022-12-18T10:23:10.328Z,29.27
2022-12-18T10:26:01.649Z,37.78
2022-12-18T10:28:31.183Z,30.20
2022-12-18T10:33:32.766Z,27.10
2022-12-18T10:35:59.523Z,32.28
2022-12-18T10:38:31.529Z,29.85
2022-12-18T10:41:02.701Z,22.55
2022-12-18T10:43:36.328Z,47.22
2022-12-18T10:46:08.873Z,65.82
2022-12-18T10:48:52.938Z,40.97
2022-12-18T10:51:27.557Z,44.65
2022-12-18T10:54:01.475Z,40.42
2022-12-18T10:56:32.540Z,22.25
2022-12-18T10:59:05.084Z,85.88
2022-12-18T11:01:53.654Z,23.60
2022-12-18T11:04:26.789Z,26.17
2022-12-18T11:06:57.732Z,17.45
2022-12-18T11:09:28.883Z,14.85
2022-12-18T11:12:01.788Z,17.50
2022-12-18T11:14:47.047Z,21.13
2022-12-18T11:17:26.987Z,13.95
2022-12-18T11:20:02.191Z,21.08
2022-12-18T11:22:31.556Z,20.77
2022-12-18T11:25:33.429Z,16.23
2022-12-18T11:28:26.694Z,13.52
2022-12-18T11:31:13.614Z,16.52
2022-12-18T11:36:39.321Z,18.90
2022-12-18T11:39:18.231Z,92.95
2022-12-18T11:42:12.535Z,71.50
2022-12-18T11:44:39.009Z,74.93
2022-12-18T11:47:40.690Z,47.40
2022-12-18T11:50:17.083Z,31.90
2022-12-18T11:52:43.631Z,26.65
2022-12-18T11:55:31.223Z,19.70
2022-12-18T11:58:13.656Z,17.60
2022-12-18T12:00:53.078Z,15.82
2022-12-18T12:03:25.462Z,22.80
2022-12-18T12:06:00.860Z,14.10
2022-12-18T12:11:17.004Z,14.38
2022-12-18T12:14:02.137Z,17.27
2022-12-18T12:16:47.445Z,15.05
2022-12-18T12:19:22.962Z,19.98
2022-12-18T12:21:52.091Z,15.18
2022-12-18T12:24:21.543Z,13.77
2022-12-18T12:29:44.966Z,15.32
2022-12-18T12:32:15.815Z,16.02
2022-12-18T12:35:00.977Z,16.58
2022-12-18T12:37:50.740Z,17.88
2022-12-18T12:40:51.112Z,17.40
2022-12-18T12:43:22.303Z,24.58
2022-12-18T12:46:09.662Z,19.30
2022-12-18T12:48:36.803Z,24.70
2022-12-18T12:51:10.510Z,26.02
2022-12-18T12:53:40.182Z,40.03
2022-12-18T12:56:10.849Z,83.97
2022-12-18T12:58:59.088Z,129.93
2022-12-18T13:01:31.846Z,44.25
2022-12-18T13:04:19.198Z,24.23
2022-12-18T13:06:54.021Z,37.65
2022-12-18T13:09:20.526Z,27.52
2022-12-18T13:12:07.390Z,47.88
2022-12-18T13:14:37.050Z,40.55
2022-12-18T13:17:15.945Z,26.00
2022-12-18T13:19:43.103Z,19.70
2022-12-18T13:22:24.817Z,40.15
2022-12-18T13:24:52.254Z,21.15
2022-12-18T13:27:46.785Z,21.08
2022-12-18T13:30:33.908Z,20.48
2022-12-18T13:33:15.653Z,22.10
2022-12-18T13:35:48.822Z,17.95
2022-12-18T13:38:38.678Z,15.32
2022-12-18T13:41:27.151Z,19.85
2022-12-18T13:44:11.181Z,15.00
2022-12-18T13:46:50.774Z,19.13
2022-12-18T13:49:31.394Z,24.75
2022-12-18T13:51:58.451Z,16.58
2022-12-18T13:54:40.683Z,15.43
2022-12-18T13:57:27.407Z,16.58
2022-12-18T13:59:53.956Z,15.18
2022-12-18T14:02:26.096Z,13.32
2022-12-18T14:04:54.015Z,15.45
2022-12-18T14:07:24.967Z,17.63
2022-12-18T14:10:06.413Z,15.90
2022-12-18T14:12:58.544Z,12.82
2022-12-18T14:15:37.669Z,12.82
2022-12-18T14:18:26.331Z,19.10
2022-12-18T14:20:57.636Z,12.95
2022-12-18T14:23:31.637Z,15.10
2022-12-18T14:26:05.189Z,16.40
2022-12-18T14:28:32.666Z,14.45
2022-12-18T14:30:59.278Z,15.68
2022-12-18T14:33:28.152Z,14.65
2022-12-18T14:35:57.588Z,14.63
2022-12-18T14:41:16.412Z,30.45
2022-12-18T14:43:48.913Z,22.15
2022-12-18T14:46:37.709Z,16.90
2022-12-18T14:49:33.608Z,20.17
2022-12-18T14:52:06.995Z,14.27
2022-12-18T14:54:38.156Z,12.55
2022-12-18T14:57:24.424Z,15.65
2022-12-18T14:59:51.878Z,34.88
2022-12-18T15:02:26.154Z,39.13
2022-12-18T15:05:15.875Z,24.92
2022-12-18T15:07:45.247Z,15.63
2022-12-18T15:10:14.139Z,16.13
2022-12-18T15:12:44.510Z,16.83
2022-12-18T15:15:36.912Z,11.82
2022-12-18T15:18:12.684Z,17.83
2022-12-18T15:20:45.024Z,15.52
2022-12-18T15:23:21.399Z,16.40
2022-12-18T15:25:49.289Z,15.95
2022-12-18T15:28:24.416Z,16.75
2022-12-18T15:31:28.205Z,16.55
2022-12-18T15:33:54.626Z,15.38
2022-12-18T15:36:26.305Z,16.55
2022-12-18T15:38:59.651Z,15.88
2022-12-18T15:44:03.843Z,15.35
2022-12-18T15:46:31.584Z,17.27
2022-12-18T15:49:02.092Z,16.20
2022-12-18T15:51:32.125Z,20.75
2022-12-18T15:54:01.192Z,19.88
2022-12-18T15:56:46.474Z,15.95
2022-12-18T15:59:15.876Z,18.13
2022-12-18T16:01:44.399Z,18.05
2022-12-18T16:04:13.398Z,23.30
2022-12-18T16:07:05.648Z,21.77
2022-12-18T16:09:26.928Z,21.45
2022-12-18T16:11:53.980Z,25.10
2022-12-18T16:14:35.695Z,18.85
2022-12-18T16:17:06.655Z,19.30
2022-12-18T16:19:33.145Z,20.60
2022-12-18T16:21:59.905Z,19.90
2022-12-18T16:24:31.883Z,18.23
2022-12-18T16:27:00.613Z,20.45
2022-12-18T16:29:28.954Z,18.25
2022-12-18T16:31:56.846Z,18.23
2022-12-18T16:34:29.324Z,17.35
2022-12-18T16:37:05.269Z,20.23
2022-12-18T16:39:42.621Z,20.50
2022-12-18T16:42:17.540Z,19.17
2022-12-18T16:44:45.302Z,16.42
2022-12-18T16:47:15.391Z,21.38
2022-12-18T16:49:45.117Z,18.55
2022-12-18T16:52:13.391Z,20.88
2022-12-18T16:54:39.997Z,23.15
2022-12-18T16:57:07.221Z,20.95
2022-12-18T16:59:33.868Z,22.40
2022-12-18T17:02:00.766Z,23.85
2022-12-18T17:04:30.604Z,19.55
2022-12-18T17:06:57.154Z,22.30
2022-12-18T17:09:26.301Z,23.27
2022-12-18T17:11:53.971Z,24.52
2022-12-18T17:14:23.674Z,19.35
2022-12-18T17:17:07.410Z,20.33
2022-12-18T17:19:37.065Z,18.52
2022-12-18T17:22:04.845Z,24.23
2022-12-18T17:24:34.747Z,21.38
2022-12-18T17:27:02.878Z,19.58
2022-12-18T17:29:29.344Z,21.45
2022-12-18T17:31:56.291Z,20.45
2022-12-18T17:34:24.290Z,23.73
2022-12-18T17:36:50.945Z,24.55
2022-12-18T17:39:20.271Z,23.63
2022-12-18T17:41:47.899Z,22.52
2022-12-18T17:44:15.224Z,19.80
2022-12-18T17:46:41.871Z,21.48
2022-12-18T17:49:09.280Z,18.75
2022-12-18T17:51:35.760Z,23.63
2022-12-18T17:54:02.232Z,25.52
2022-12-18T17:56:28.933Z,24.80
2022-12-18T17:58:55.447Z,25.77
2022-12-18T18:01:25.211Z,23.50
2022-12-18T18:03:54.123Z,23.55
2022-12-18T18:06:20.894Z,29.10
2022-12-18T18:08:48.021Z,23.17
2022-12-18T18:11:36.402Z,21.33
2022-12-18T18:14:06.268Z,23.38
2022-12-18T18:16:40.449Z,37.72
2022-12-18T18:19:11.201Z,31.13
2022-12-18T18:21:42.893Z,32.08
2022-12-18T18:24:11.658Z,29.10
2022-12-18T18:26:39.504Z,62.03
2022-12-18T18:29:07.829Z,69.47
2022-12-18T18:31:41.369Z,31.95
2022-12-18T18:34:13.764Z,34.97
2022-12-18T18:36:40.304Z,27.17
2022-12-18T18:39:07.011Z,25.35
2022-12-18T18:41:35.543Z,31.95
2022-12-18T18:44:02.023Z,38.78
2022-12-18T18:46:28.565Z,34.83
2022-12-18T18:48:55.428Z,21.80
2022-12-18T18:51:22.532Z,25.42
2022-12-18T18:53:51.441Z,26.20
2022-12-18T18:59:09.611Z,25.23
2022-12-18T19:01:36.133Z,20.42
2022-12-18T19:04:04.975Z,23.77
2022-12-18T19:06:31.528Z,23.20
2022-12-18T19:09:02.160Z,18.90
2022-12-18T19:11:47.321Z,21.40
2022-12-18T19:14:17.239Z,24.30
2022-12-18T19:16:45.452Z,24.42
2022-12-18T19:19:13.170Z,20.52
2022-12-18T19:21:40.221Z,20.08
2022-12-18T19:24:07.596Z,20.50
2022-12-18T19:26:35.832Z,19.95
2022-12-18T19:29:08.644Z,25.02
2022-12-18T19:31:37.335Z,25.20
2022-12-18T19:34:06.486Z,25.27
2022-12-18T19:36:34.561Z,23.60
2022-12-18T19:39:02.750Z,25.50
2022-12-18T19:41:31.147Z,22.48
2022-12-18T19:43:58.346Z,20.85
2022-12-18T19:46:25.157Z,21.95
2022-12-18T19:48:52.187Z,22.33
2022-12-18T19:51:25.322Z,20.48
2022-12-18T19:53:58.209Z,22.30
2022-12-18T19:56:28.236Z,21.38
2022-12-18T19:58:55.349Z,22.48
2022-12-18T20:01:24.631Z,20.42
2022-12-18T20:03:52.899Z,26.50
2022-12-18T20:06:25.818Z,25.70
2022-12-18T20:08:54.028Z,20.50
2022-12-18T20:11:28.939Z,20.85
2022-12-18T20:13:55.458Z,24.48
2022-12-18T20:16:22.063Z,23.23
2022-12-18T20:18:49.225Z,30.02
2022-12-18T20:21:16.034Z,24.33
2022-12-18T20:23:43.284Z,20.08
2022-12-18T20:26:10.853Z,26.88
2022-12-18T20:28:37.854Z,21.65
2022-12-18T20:31:08.335Z,24.30
2022-12-18T20:33:37.128Z,25.50
2022-12-18T20:36:06.563Z,26.88
2022-12-18T20:38:35.263Z,25.42
2022-12-18T20:41:06.577Z,23.70
2022-12-18T20:43:33.044Z,25.42
2022-12-18T20:46:04.029Z,26.10
2022-12-18T20:48:31.361Z,36.25
2022-12-18T20:51:04.086Z,25.23
2022-12-18T20:53:31.897Z,25.98
2022-12-18T20:55:58.445Z,22.90
2022-12-18T20:58:25.044Z,27.52
2022-12-18T21:01:03.950Z,26.63
2022-12-18T21:03:30.515Z,25.70
2022-12-18T21:05:57.209Z,27.30
2022-12-18T21:08:23.727Z,26.40
2022-12-18T21:10:50.300Z,29.27
2022-12-18T21:13:17.225Z,28.55
2022-12-18T21:15:45.319Z,27.33
2022-12-18T21:18:11.899Z,25.50
2022-12-18T21:20:38.918Z,28.90
2022-12-18T21:23:16.524Z,30.80
2022-12-18T21:25:44.323Z,25.33
2022-12-18T21:28:12.119Z,32.67
2022-12-18T21:30:38.959Z,26.27
2022-12-18T21:33:05.508Z,31.50
2022-12-18T21:35:32.309Z,22.02
2022-12-18T21:37:58.844Z,32.55
2022-12-18T21:40:25.346Z,27.90
2022-12-18T21:43:10.227Z,28.60
2022-12-18T21:45:39.846Z,28.52
2022-12-18T21:48:06.620Z,26.67
2022-12-18T21:50:33.036Z,27.10
2022-12-18T21:52:59.689Z,34.10
2022-12-18T21:55:26.193Z,29.02
2022-12-18T21:57:53.895Z,24.63
2022-12-18T22:00:21.707Z,29.35
2022-12-18T22:03:03.729Z,24.40
2022-12-18T22:05:35.587Z,28.65
2022-12-18T22:08:02.066Z,27.60
2022-12-18T22:10:28.565Z,27.27
2022-12-18T22:12:55.225Z,26.25
2022-12-18T22:15:22.037Z,32.83
2022-12-18T22:17:50.738Z,32.63
2022-12-18T22:20:18.239Z,28.02
2022-12-18T22:22:47.184Z,31.83
2022-12-18T22:25:13.685Z,29.60
2022-12-18T22:27:40.151Z,28.13
2022-12-18T22:30:08.167Z,31.83
2022-12-18T22:32:36.052Z,30.65
2022-12-18T22:35:09.138Z,28.88
2022-12-18T22:37:37.015Z,34.83
2022-12-18T22:40:06.082Z,28.17
2022-12-18T22:42:34.071Z,32.40
2022-12-18T22:45:00.651Z,24.35
2022-12-18T22:47:30.173Z,31.77
2022-12-18T22:49:57.073Z,31.25
2022-12-18T22:52:25.036Z,26.85
2022-12-18T22:54:53.563Z,32.83
2022-12-18T22:57:20.705Z,29.35
2022-12-18T22:59:47.182Z,28.55
2022-12-18T23:02:13.801Z,29.83
2022-12-18T23:04:40.585Z,28.17
2022-12-18T23:07:07.056Z,28.80
2022-12-18T23:09:34.070Z,33.30
2022-12-18T23:12:01.113Z,28.48
2022-12-18T23:14:28.678Z,25.35
2022-12-18T23:16:55.548Z,31.38
2022-12-18T23:19:23.722Z,29.20
2022-12-18T23:21:51.070Z,31.13
2022-12-18T23:24:17.871Z,30.95
2022-12-18T23:26:44.346Z,32.38
2022-12-18T23:29:10.773Z,29.77
2022-12-18T23:31:39.381Z,32.20
2022-12-18T23:34:07.432Z,31.63
2022-12-18T23:36:40.951Z,28.05
2022-12-18T23:39:19.243Z,27.55
2022-12-18T23:41:57.935Z,30.88
2022-12-18T23:44:24.991Z,29.00
2022-12-18T23:46:51.543Z,33.13
2022-12-18T23:49:18.032Z,35.42
2022-12-18T23:51:44.453Z,38.40
2022-12-18T23:54:10.947Z,27.45
2022-12-18T23:56:37.657Z,32.63
2022-12-18T23:59:04.210Z,33.75
